Weather at Abilene Regional Airport

Public forecast

Using degrees Fahrenheit for public forecast. Weather courtesy of forecast.io.

Current aviation weather report (METAR) for Abilene Regional Airport

Retrieved 2021/07/27 22:52 UTC (1 hour ago):

KABI 272252Z 12011KT 10SM CLR 36/17 A2999 RMK AO2 SLP122 T03610167

Aviation forecast (TAF) for Abilene Regional Airport

Retrieved 2021/07/27 18:33 UTC (5 hours ago):

TAF KABI 271731Z 2718/2818 08008KT P6SM BKN250 FM280200 11005KT P6SM OVC250